Boston, Massachusetts
Traffic Map
Current Weather Conditions
Boston, Massachusetts
Clear
Clear
-2°
Feels Like: -7°
Wind Chill: -7° Ceiling: Unl
Heat Index: -2° Visibility: 10mi
Dew Point: -6° Wind: 10mph
Humidity: 75% Direction: 320° (NW)
Pressure: 30.18in Gusts: 0mph
Raw Report DataKBOS 200654Z 32009KT 10SM CLR M02/M06 A3018 RMK AO2 SLP220 T10221061
Traffic Incident Summary
Active as of:
Severity:
Category:
InformationThere was an issue retrieving the traffic information for this location. Please try a different location or try again shortly.
Advertisements
Track Severe Weather on mobile